createdAt,value
2022-12-04T00:00:56.567Z,6.43
2022-12-04T00:01:56.477Z,6.41
2022-12-04T00:02:56.605Z,6.36
2022-12-04T00:03:56.383Z,6.38
2022-12-04T00:04:56.463Z,6.29
2022-12-04T00:05:56.603Z,6.39
2022-12-04T00:06:58.782Z,6.28
2022-12-04T00:07:56.466Z,6.31
2022-12-04T00:08:56.146Z,6.28
2022-12-04T00:09:56.440Z,6.26
2022-12-04T00:10:56.067Z,6.25
2022-12-04T00:11:55.998Z,6.26
2022-12-04T00:12:55.947Z,6.31
2022-12-04T00:13:58.259Z,6.25
2022-12-04T00:15:55.829Z,6.32
2022-12-04T00:16:56.143Z,6.35
2022-12-04T00:17:55.715Z,6.38
2022-12-04T00:18:55.914Z,6.34
2022-12-04T00:19:55.946Z,6.28
2022-12-04T00:20:56.919Z,6.26
2022-12-04T00:21:55.518Z,6.28
2022-12-04T00:22:55.731Z,6.32
2022-12-04T00:23:55.737Z,6.26
2022-12-04T00:24:55.400Z,6.31
2022-12-04T00:25:56.545Z,6.26
2022-12-04T00:26:55.277Z,6.20
2022-12-04T00:27:55.337Z,6.31
2022-12-04T00:28:55.191Z,6.31
2022-12-04T00:29:55.351Z,6.32
2022-12-04T00:30:55.354Z,6.26
2022-12-04T00:31:55.107Z,6.29
2022-12-04T00:32:55.165Z,6.28
2022-12-04T00:33:54.944Z,6.26
2022-12-04T00:34:54.979Z,6.38
2022-12-04T00:35:54.851Z,6.36
2022-12-04T00:36:54.989Z,6.38
2022-12-04T00:37:54.756Z,6.41
2022-12-04T00:38:54.796Z,6.26
2022-12-04T00:39:54.876Z,6.35
2022-12-04T00:40:55.023Z,6.38
2022-12-04T00:41:54.576Z,6.34
2022-12-04T00:42:54.624Z,6.41
2022-12-04T00:43:54.525Z,6.36
2022-12-04T00:44:54.645Z,6.35
2022-12-04T00:45:54.417Z,6.38
2022-12-04T00:46:54.448Z,6.32
2022-12-04T00:47:54.284Z,6.34
2022-12-04T00:48:54.231Z,6.32
2022-12-04T00:49:54.517Z,6.22
2022-12-04T00:50:54.150Z,6.32
2022-12-04T00:51:54.280Z,6.25
2022-12-04T00:52:54.546Z,6.26
2022-12-04T00:53:53.995Z,6.32
2022-12-04T00:54:53.949Z,6.39
2022-12-04T00:55:54.109Z,6.39
2022-12-04T00:56:53.858Z,6.35
2022-12-04T00:57:58.437Z,6.38
2022-12-04T00:58:53.778Z,6.39
2022-12-04T00:59:53.895Z,6.36
2022-12-04T01:00:53.775Z,6.32
2022-12-04T01:01:54.769Z,6.38
2022-12-04T01:02:53.644Z,6.35
2022-12-04T01:03:53.756Z,6.34
2022-12-04T01:04:53.604Z,6.34
2022-12-04T01:05:53.425Z,6.25
2022-12-04T01:06:53.373Z,6.25
2022-12-04T01:07:53.619Z,6.20
2022-12-04T01:08:53.277Z,6.16
2022-12-04T01:09:53.663Z,6.26
2022-12-04T01:10:53.293Z,6.28
2022-12-04T01:12:01.817Z,6.20
2022-12-04T01:12:53.209Z,6.17
2022-12-04T01:13:53.043Z,6.20
2022-12-04T01:14:53.217Z,6.10
2022-12-04T01:15:52.964Z,6.09
2022-12-04T01:16:53.020Z,6.10
2022-12-04T01:17:53.088Z,6.12
2022-12-04T01:18:52.803Z,6.10
2022-12-04T01:19:53.230Z,6.22
2022-12-04T01:20:52.702Z,6.20
2022-12-04T01:21:52.856Z,6.17
2022-12-04T01:22:52.615Z,6.20
2022-12-04T01:23:52.627Z,6.10
2022-12-04T01:24:52.515Z,6.22
2022-12-04T01:25:52.684Z,6.06
2022-12-04T01:26:52.430Z,6.19
2022-12-04T01:27:52.501Z,6.22
2022-12-04T01:28:52.321Z,6.15
2022-12-04T01:29:53.022Z,6.12
2022-12-04T01:30:52.224Z,6.09
2022-12-04T01:31:52.434Z,6.07
2022-12-04T01:32:52.128Z,6.16
2022-12-04T01:33:52.341Z,6.13
2022-12-04T01:34:52.190Z,6.12
2022-12-04T01:35:52.141Z,6.12
2022-12-04T01:36:51.937Z,6.13
2022-12-04T01:37:51.951Z,6.13
2022-12-04T01:38:51.846Z,6.05
2022-12-04T01:39:52.194Z,6.09
2022-12-04T01:40:51.786Z,6.19
2022-12-04T01:41:51.778Z,6.12
2022-12-04T01:42:51.651Z,6.13
2022-12-04T01:43:51.793Z,6.10
2022-12-04T01:44:51.558Z,6.10
2022-12-04T01:45:51.660Z,6.13
2022-12-04T01:46:51.654Z,6.09
2022-12-04T01:47:51.624Z,6.09
2022-12-04T01:48:51.368Z,6.10
2022-12-04T01:49:51.428Z,6.12
2022-12-04T01:50:51.349Z,6.15
2022-12-04T01:51:52.470Z,6.10
2022-12-04T01:52:51.172Z,6.01
2022-12-04T01:53:51.253Z,6.10
2022-12-04T01:54:51.260Z,6.17
2022-12-04T01:55:51.036Z,6.15
2022-12-04T01:56:51.273Z,6.15
2022-12-04T01:57:50.933Z,6.16
2022-12-04T01:58:51.092Z,6.09
2022-12-04T01:59:50.864Z,6.07
2022-12-04T02:00:51.849Z,6.13
2022-12-04T02:01:50.986Z,6.09
2022-12-04T02:02:50.725Z,6.01
2022-12-04T02:03:50.923Z,6.05
2022-12-04T02:04:50.598Z,6.05
2022-12-04T02:05:50.735Z,6.02
2022-12-04T02:06:50.506Z,6.02
2022-12-04T02:07:50.850Z,6.01
2022-12-04T02:08:50.404Z,5.99
2022-12-04T02:09:50.562Z,5.91
2022-12-04T02:10:50.310Z,5.87
2022-12-04T02:11:50.389Z,5.88
2022-12-04T02:12:50.362Z,6.06
2022-12-04T02:13:50.177Z,6.07
2022-12-04T02:14:50.380Z,6.13
2022-12-04T02:15:50.096Z,6.10
2022-12-04T02:16:50.249Z,6.05
2022-12-04T02:17:50.295Z,6.01
2022-12-04T02:18:49.927Z,6.01
2022-12-04T02:19:49.880Z,6.06
2022-12-04T02:20:50.020Z,6.01
2022-12-04T02:21:49.779Z,5.95
2022-12-04T02:22:49.837Z,5.99
2022-12-04T02:23:49.717Z,5.92
2022-12-04T02:24:50.311Z,5.99
2022-12-04T02:25:49.590Z,6.05
2022-12-04T02:26:49.649Z,6.07
2022-12-04T02:27:49.496Z,6.12
2022-12-04T02:28:49.664Z,6.13
2022-12-04T02:29:49.509Z,6.13
2022-12-04T02:30:49.400Z,6.10
2022-12-04T02:31:49.304Z,6.26
2022-12-04T02:32:49.492Z,6.19
2022-12-04T02:33:49.232Z,6.10
2022-12-04T02:34:49.298Z,6.15
2022-12-04T02:35:49.355Z,6.09
2022-12-04T02:36:49.062Z,5.99
2022-12-04T02:37:49.057Z,6.06
2022-12-04T02:38:49.124Z,6.01
2022-12-04T02:39:48.921Z,5.91
2022-12-04T02:40:49.134Z,5.92
2022-12-04T02:41:49.030Z,6.01
2022-12-04T02:42:48.955Z,5.99
2022-12-04T02:43:48.742Z,6.06
2022-12-04T02:44:48.860Z,6.10
2022-12-04T02:45:48.763Z,6.07
2022-12-04T02:46:48.668Z,6.05
2022-12-04T02:47:48.572Z,6.06
2022-12-04T02:48:48.693Z,6.15
2022-12-04T02:49:48.521Z,6.10
2022-12-04T02:50:48.493Z,6.12
2022-12-04T02:51:48.345Z,6.12
2022-12-04T02:52:48.711Z,6.07
2022-12-04T02:53:48.256Z,6.10
2022-12-04T02:54:48.318Z,6.07
2022-12-04T02:55:48.169Z,6.07
2022-12-04T02:56:48.331Z,6.12
2022-12-04T02:57:48.091Z,6.13
2022-12-04T02:58:48.344Z,6.19
2022-12-04T02:59:47.964Z,6.07
2022-12-04T03:00:48.153Z,6.16
2022-12-04T03:01:47.914Z,6.19
2022-12-04T03:02:48.025Z,6.28
2022-12-04T03:03:47.768Z,6.28
2022-12-04T03:04:48.186Z,6.22
2022-12-04T03:05:47.675Z,6.34
2022-12-04T03:06:47.794Z,6.31
2022-12-04T03:07:47.689Z,6.28
2022-12-04T03:08:47.806Z,6.25
2022-12-04T03:09:47.489Z,6.20
2022-12-04T03:10:47.820Z,6.07
2022-12-04T03:11:47.423Z,6.22
2022-12-04T03:12:47.427Z,6.16
2022-12-04T03:13:47.302Z,6.20
2022-12-04T03:14:47.246Z,6.15
2022-12-04T03:15:47.447Z,6.09
2022-12-04T03:16:47.368Z,6.12
2022-12-04T03:17:47.263Z,6.10
2022-12-04T03:18:47.085Z,6.16
2022-12-04T03:19:47.013Z,6.12
2022-12-04T03:20:46.959Z,6.13
2022-12-04T03:21:47.079Z,6.12
2022-12-04T03:22:46.868Z,6.10
2022-12-04T03:23:47.107Z,6.12
2022-12-04T03:24:46.958Z,6.09
2022-12-04T03:25:46.722Z,6.16
2022-12-04T03:26:46.672Z,6.17
2022-12-04T03:27:46.716Z,6.10
2022-12-04T03:28:46.582Z,6.20
2022-12-04T03:29:46.731Z,6.17
2022-12-04T03:30:46.656Z,6.09
2022-12-04T03:31:46.433Z,6.07
2022-12-04T03:32:46.390Z,6.05
2022-12-04T03:33:46.554Z,6.02
2022-12-04T03:34:46.303Z,6.10
2022-12-04T03:35:46.377Z,6.09
2022-12-04T03:36:46.426Z,6.01
2022-12-04T03:37:46.181Z,5.99
2022-12-04T03:38:46.095Z,6.07
2022-12-04T03:39:46.193Z,6.07
2022-12-04T03:40:46.002Z,6.17
2022-12-04T03:41:49.774Z,6.17
2022-12-04T03:42:45.900Z,6.16
2022-12-04T03:43:46.065Z,6.09
2022-12-04T03:44:45.815Z,6.12
2022-12-04T03:45:46.054Z,6.13
2022-12-04T03:46:45.709Z,6.07
2022-12-04T03:47:45.837Z,6.12
2022-12-04T03:48:45.895Z,6.05
2022-12-04T03:49:45.576Z,5.99
2022-12-04T03:50:45.521Z,5.99
2022-12-04T03:51:45.660Z,5.97
2022-12-04T03:52:45.422Z,5.99
2022-12-04T03:53:45.475Z,6.01
2022-12-04T03:54:45.353Z,5.99
2022-12-04T03:55:45.284Z,6.09
2022-12-04T03:56:45.498Z,6.07
2022-12-04T03:57:45.188Z,6.07
2022-12-04T03:58:45.303Z,6.01
2022-12-04T03:59:45.096Z,6.16
2022-12-04T04:00:45.732Z,6.13
2022-12-04T04:01:45.203Z,6.13
2022-12-04T04:02:44.993Z,6.17
2022-12-04T04:03:45.136Z,6.13
2022-12-04T04:04:44.853Z,6.13
2022-12-04T04:05:44.940Z,6.07
2022-12-04T04:06:44.795Z,6.12
2022-12-04T04:07:44.751Z,6.07
2022-12-04T04:08:44.816Z,6.02
2022-12-04T04:09:44.770Z,6.05
2022-12-04T04:10:44.564Z,6.05
2022-12-04T04:11:44.784Z,6.07
2022-12-04T04:12:44.469Z,6.05
2022-12-04T04:13:44.421Z,6.01
2022-12-04T04:14:44.398Z,5.97
2022-12-04T04:15:45.497Z,6.01
2022-12-04T04:16:44.280Z,6.10
2022-12-04T04:17:44.429Z,6.01
2022-12-04T04:18:44.477Z,6.05
2022-12-04T04:19:44.131Z,6.02
2022-12-04T04:20:44.084Z,6.01
2022-12-04T04:21:44.330Z,6.12
2022-12-04T04:22:44.070Z,6.10
2022-12-04T04:23:44.052Z,6.13
2022-12-04T04:24:43.935Z,6.15
2022-12-04T04:25:43.840Z,6.22
2022-12-04T04:26:43.805Z,6.13
2022-12-04T04:27:43.881Z,6.19
2022-12-04T04:28:43.707Z,6.26
2022-12-04T04:29:47.943Z,6.25
2022-12-04T04:30:43.775Z,6.19
2022-12-04T04:31:43.707Z,6.13
2022-12-04T04:32:43.510Z,6.28
2022-12-04T04:33:43.718Z,6.25
2022-12-04T04:34:43.412Z,6.22
2022-12-04T04:35:43.526Z,6.28
2022-12-04T04:36:43.357Z,6.28
2022-12-04T04:37:43.539Z,6.15
2022-12-04T04:38:43.225Z,6.07
2022-12-04T04:39:43.349Z,6.25
2022-12-04T04:40:43.127Z,6.09
2022-12-04T04:41:43.365Z,6.15
2022-12-04T04:42:43.216Z,6.10
2022-12-04T04:43:43.175Z,6.09
2022-12-04T04:44:42.933Z,6.12
2022-12-04T04:45:42.990Z,6.05
2022-12-04T04:46:42.884Z,6.12
2022-12-04T04:47:43.005Z,6.06
2022-12-04T04:48:42.762Z,6.09
2022-12-04T04:49:42.811Z,6.10
2022-12-04T04:50:42.647Z,6.19
2022-12-04T04:51:42.828Z,6.20
2022-12-04T04:52:42.554Z,6.13
2022-12-04T04:53:42.634Z,6.07
2022-12-04T04:54:43.728Z,6.10
2022-12-04T04:55:42.654Z,6.09
2022-12-04T04:56:42.364Z,5.99
2022-12-04T04:57:42.529Z,6.09
2022-12-04T04:58:42.267Z,5.99
2022-12-04T04:59:42.474Z,5.95
2022-12-04T05:00:42.211Z,5.99
2022-12-04T05:01:42.519Z,6.06
2022-12-04T05:02:42.142Z,6.01
2022-12-04T05:03:42.070Z,5.97
2022-12-04T05:04:42.099Z,5.94
2022-12-04T05:05:41.927Z,5.94
2022-12-04T05:06:42.316Z,5.99
2022-12-04T05:07:41.884Z,6.06
2022-12-04T05:08:41.812Z,6.02
2022-12-04T05:09:41.731Z,6.05
2022-12-04T05:10:41.941Z,6.10
2022-12-04T05:11:41.638Z,5.97
2022-12-04T05:12:41.751Z,6.01
2022-12-04T05:13:41.826Z,6.02
2022-12-04T05:14:41.528Z,5.98
2022-12-04T05:15:41.494Z,6.07
2022-12-04T05:16:41.674Z,5.97
2022-12-04T05:17:41.348Z,5.95
2022-12-04T05:18:41.591Z,5.91
2022-12-04T05:19:41.255Z,5.81
2022-12-04T05:20:41.205Z,5.87
2022-12-04T05:21:41.200Z,5.70
2022-12-04T05:22:41.418Z,5.70
2022-12-04T05:23:41.068Z,5.79
2022-12-04T05:24:41.232Z,5.81
2022-12-04T05:25:40.965Z,5.88
2022-12-04T05:26:40.926Z,5.81
2022-12-04T05:27:41.096Z,5.88
2022-12-04T05:28:41.046Z,5.83
2022-12-04T05:29:40.788Z,5.72
2022-12-04T05:30:40.862Z,5.74
2022-12-04T05:31:40.758Z,5.77
2022-12-04T05:32:40.629Z,5.74
2022-12-04T05:33:40.608Z,5.79
2022-12-04T05:34:40.685Z,5.80
2022-12-04T05:35:40.498Z,5.87
2022-12-04T05:36:40.700Z,5.76
2022-12-04T05:37:40.464Z,5.84
2022-12-04T05:38:40.557Z,5.90
2022-12-04T05:39:40.290Z,5.90
2022-12-04T05:40:40.639Z,5.84
2022-12-04T05:41:40.197Z,5.92
2022-12-04T05:42:40.355Z,5.94
2022-12-04T05:43:40.101Z,5.92
2022-12-04T05:44:40.348Z,5.91
2022-12-04T05:45:40.010Z,5.97
2022-12-04T05:46:40.226Z,5.98
2022-12-04T05:47:39.911Z,5.95
2022-12-04T05:48:39.964Z,5.95
2022-12-04T05:49:39.815Z,5.95
2022-12-04T05:50:40.194Z,5.94
2022-12-04T05:51:39.793Z,5.92
2022-12-04T05:52:39.786Z,5.98
2022-12-04T05:53:39.632Z,6.01
2022-12-04T05:54:39.805Z,5.97
2022-12-04T05:55:39.526Z,5.99
2022-12-04T05:56:39.623Z,6.09
2022-12-04T05:57:39.441Z,6.05
2022-12-04T05:58:39.629Z,6.01
2022-12-04T05:59:39.336Z,5.99
2022-12-04T06:03:47.854Z,5.83
2022-12-04T06:04:47.462Z,5.74
2022-12-04T06:05:47.673Z,5.64
2022-12-04T06:06:47.389Z,5.69
2022-12-04T06:07:47.525Z,5.65
2022-12-04T06:08:47.257Z,5.67
2022-12-04T06:09:47.547Z,5.62
2022-12-04T06:10:47.161Z,5.61
2022-12-04T06:11:47.298Z,5.65
2022-12-04T06:12:47.071Z,5.67
2022-12-04T06:13:47.317Z,5.59
2022-12-04T06:14:46.975Z,5.65
2022-12-04T06:15:46.947Z,5.65
2022-12-04T06:16:46.925Z,5.64
2022-12-04T06:17:46.938Z,5.76
2022-12-04T06:18:46.825Z,5.69
2022-12-04T06:19:46.979Z,5.70
2022-12-04T06:20:46.759Z,5.77
2022-12-04T06:21:47.022Z,5.88
2022-12-04T06:22:46.767Z,5.94
2022-12-04T06:23:46.541Z,5.94
2022-12-04T06:24:46.780Z,5.92
2022-12-04T06:25:46.440Z,5.92
2022-12-04T06:27:11.191Z,5.91
2022-12-04T06:27:46.614Z,5.92
2022-12-04T06:28:46.292Z,5.94
2022-12-04T06:29:46.415Z,5.98
2022-12-04T06:30:46.201Z,6.05
2022-12-04T06:31:46.738Z,5.99
2022-12-04T06:32:46.122Z,5.97
2022-12-04T06:33:46.055Z,6.02
2022-12-04T06:34:46.008Z,6.05
2022-12-04T06:35:46.248Z,6.06
2022-12-04T06:36:45.912Z,6.10
2022-12-04T06:37:47.082Z,6.09
2022-12-04T06:38:46.116Z,6.07
2022-12-04T06:39:45.805Z,6.13
2022-12-04T06:40:45.716Z,6.20
2022-12-04T06:41:45.879Z,6.10
2022-12-04T06:42:45.624Z,6.13
2022-12-04T06:43:45.697Z,6.12
2022-12-04T06:44:45.540Z,6.19
2022-12-04T06:45:45.825Z,6.25
2022-12-04T06:46:47.362Z,6.28
2022-12-04T06:47:45.383Z,6.26
2022-12-04T06:48:45.543Z,6.20
2022-12-04T06:49:45.556Z,6.10
2022-12-04T06:50:45.541Z,6.20
2022-12-04T06:51:45.199Z,6.20
2022-12-04T06:52:45.349Z,6.10
2022-12-04T06:53:45.099Z,6.13
2022-12-04T06:54:45.365Z,6.17
2022-12-04T06:55:45.265Z,6.25
2022-12-04T06:56:45.170Z,6.22
2022-12-04T06:57:44.907Z,6.07
2022-12-04T06:58:44.982Z,6.07
2022-12-04T06:59:44.808Z,6.17
2022-12-04T07:00:45.066Z,6.22
2022-12-04T07:01:44.749Z,6.20
2022-12-04T07:02:44.928Z,6.09
2022-12-04T07:03:49.527Z,6.13
2022-12-04T07:04:44.567Z,6.12
2022-12-04T07:05:44.835Z,6.15
2022-12-04T07:06:44.679Z,6.09
2022-12-04T07:07:44.676Z,6.22
2022-12-04T07:08:44.697Z,6.13
2022-12-04T07:09:44.652Z,6.09
2022-12-04T07:10:44.312Z,6.17
2022-12-04T07:11:44.372Z,6.10
2022-12-04T07:12:44.187Z,6.16
2022-12-04T07:13:44.283Z,6.17
2022-12-04T07:14:44.186Z,6.13
2022-12-04T07:15:44.288Z,6.22
2022-12-04T07:16:44.097Z,6.26
2022-12-04T07:17:44.105Z,6.06
2022-12-04T07:18:43.930Z,6.13
2022-12-04T07:19:47.343Z,6.15
2022-12-04T07:20:52.094Z,6.10
2022-12-04T07:21:43.762Z,6.16
2022-12-04T07:22:43.708Z,6.09
2022-12-04T07:23:43.663Z,6.16
2022-12-04T07:24:43.613Z,6.10
2022-12-04T07:25:43.598Z,6.15
2022-12-04T07:26:43.519Z,6.09
2022-12-04T07:27:43.475Z,6.19
2022-12-04T07:28:43.427Z,6.13
2022-12-04T07:29:43.401Z,6.07
2022-12-04T07:30:43.350Z,6.13
2022-12-04T07:31:43.339Z,6.15
2022-12-04T07:32:43.230Z,6.16
2022-12-04T07:33:43.184Z,6.17
2022-12-04T07:34:43.165Z,6.12
2022-12-04T07:35:43.088Z,6.15
2022-12-04T07:36:43.040Z,6.09
2022-12-04T07:37:43.032Z,6.26
2022-12-04T07:38:42.942Z,6.17
2022-12-04T07:39:42.942Z,5.99
2022-12-04T07:40:42.852Z,6.05
2022-12-04T07:41:42.806Z,6.06
2022-12-04T07:42:42.757Z,5.98
2022-12-04T07:43:42.706Z,5.98
2022-12-04T07:44:42.660Z,5.92
2022-12-04T07:45:42.696Z,5.88
2022-12-04T07:46:42.585Z,5.92
2022-12-04T07:47:42.516Z,5.91
2022-12-04T07:48:42.472Z,5.91
2022-12-04T07:49:42.416Z,5.84
2022-12-04T07:50:42.372Z,5.95
2022-12-04T07:51:42.437Z,5.97
2022-12-04T07:52:42.278Z,5.99
2022-12-04T07:53:42.227Z,6.09
2022-12-04T07:54:42.186Z,6.10
2022-12-04T07:55:42.136Z,6.13
2022-12-04T07:56:42.084Z,6.06
2022-12-04T07:57:42.087Z,6.07
2022-12-04T07:58:41.986Z,6.15
2022-12-04T07:59:41.941Z,6.07
2022-12-04T08:00:41.896Z,6.20
2022-12-04T08:01:41.906Z,6.12
2022-12-04T08:02:41.795Z,6.20
2022-12-04T08:03:47.257Z,6.06
2022-12-04T08:04:41.797Z,6.12
2022-12-04T08:05:41.662Z,6.20
2022-12-04T08:06:41.613Z,6.22
2022-12-04T08:07:41.595Z,6.28
2022-12-04T08:08:41.535Z,6.32
2022-12-04T08:09:41.493Z,6.20
2022-12-04T08:10:41.419Z,6.28
2022-12-04T08:11:41.374Z,6.26
2022-12-04T08:12:41.328Z,6.28
2022-12-04T08:13:41.274Z,6.25
2022-12-04T08:14:41.259Z,6.26
2022-12-04T08:15:41.181Z,6.05
2022-12-04T08:16:41.200Z,6.13
2022-12-04T08:17:41.084Z,6.17
2022-12-04T08:18:41.038Z,6.13
2022-12-04T08:19:40.991Z,6.07
2022-12-04T08:20:40.943Z,6.20
2022-12-04T08:21:40.918Z,6.19
2022-12-04T08:22:40.870Z,6.22
2022-12-04T08:23:40.819Z,6.28
2022-12-04T08:24:40.753Z,6.29
2022-12-04T08:25:40.726Z,6.32
2022-12-04T08:26:40.651Z,6.43
2022-12-04T08:27:45.976Z,6.36
2022-12-04T08:28:40.561Z,6.34
2022-12-04T08:29:40.508Z,6.46
2022-12-04T08:30:40.534Z,6.47
2022-12-04T08:31:40.496Z,6.53
2022-12-04T08:32:40.368Z,6.53
2022-12-04T08:33:40.320Z,6.59
2022-12-04T08:34:40.274Z,6.59
2022-12-04T08:35:40.253Z,6.52
2022-12-04T08:36:40.180Z,6.50
2022-12-04T08:37:40.130Z,6.44
2022-12-04T08:38:40.081Z,6.49
2022-12-04T08:39:40.064Z,6.47
2022-12-04T08:40:40.014Z,6.50
2022-12-04T08:41:39.937Z,6.59
2022-12-04T08:42:39.896Z,6.70
2022-12-04T08:43:39.843Z,6.71
2022-12-04T08:44:39.806Z,6.70
2022-12-04T08:45:39.750Z,6.78
2022-12-04T08:46:39.806Z,6.75
2022-12-04T08:47:39.681Z,6.77
2022-12-04T08:48:39.610Z,6.90
2022-12-04T08:49:39.561Z,6.80
2022-12-04T08:50:39.510Z,6.77
2022-12-04T08:51:39.462Z,6.82
2022-12-04T08:52:39.443Z,6.80
2022-12-04T08:53:39.368Z,6.82
2022-12-04T08:54:39.325Z,6.86
2022-12-04T08:55:39.275Z,6.80
2022-12-04T08:56:39.228Z,6.82
2022-12-04T08:57:39.178Z,6.85
2022-12-04T08:58:39.171Z,6.85
2022-12-04T08:59:39.084Z,6.75
2022-12-04T09:00:39.040Z,6.75
2022-12-04T09:01:39.196Z,6.72
2022-12-04T09:02:38.941Z,6.72
2022-12-04T09:03:38.899Z,6.70
2022-12-04T09:04:38.964Z,6.75
2022-12-04T09:05:38.798Z,6.74
2022-12-04T09:06:38.776Z,6.71
2022-12-04T09:07:38.733Z,6.67
2022-12-04T09:08:38.658Z,6.64
2022-12-04T09:09:41.275Z,6.74
2022-12-04T09:10:38.563Z,6.70
2022-12-04T09:11:38.515Z,6.80
2022-12-04T09:12:38.467Z,6.68
2022-12-04T09:13:38.424Z,6.68
2022-12-04T09:14:38.376Z,6.70
2022-12-04T09:15:38.714Z,6.68
2022-12-04T09:16:38.280Z,6.70
2022-12-04T09:17:38.235Z,6.71
2022-12-04T09:18:38.183Z,6.71
2022-12-04T09:19:38.132Z,6.65
2022-12-04T09:20:38.090Z,6.59
2022-12-04T09:21:38.083Z,6.52
2022-12-04T09:23:02.294Z,6.56
2022-12-04T09:23:37.948Z,6.44
2022-12-04T09:24:37.900Z,6.52
2022-12-04T09:25:37.852Z,6.49
2022-12-04T09:26:37.798Z,6.50
2022-12-04T09:27:37.782Z,6.53
2022-12-04T09:28:37.710Z,6.54
2022-12-04T09:29:37.686Z,6.49
2022-12-04T09:30:37.740Z,6.56
2022-12-04T09:31:37.614Z,6.50
2022-12-04T09:32:37.539Z,6.52
2022-12-04T09:33:37.473Z,6.49
2022-12-04T09:34:37.422Z,6.44
2022-12-04T09:35:37.376Z,6.49
2022-12-04T09:36:37.329Z,6.50
2022-12-04T09:37:37.300Z,6.43
2022-12-04T09:38:37.234Z,6.35
2022-12-04T09:39:37.183Z,6.39
2022-12-04T09:40:38.165Z,6.43
2022-12-04T09:41:37.102Z,6.43
2022-12-04T09:42:37.040Z,6.39
2022-12-04T09:43:36.990Z,6.44
2022-12-04T09:44:36.942Z,6.41
2022-12-04T09:45:36.897Z,6.47
2022-12-04T09:46:37.531Z,6.43
2022-12-04T09:47:36.822Z,6.47
2022-12-04T09:48:36.752Z,6.41
2022-12-04T09:49:36.703Z,6.44
2022-12-04T09:50:36.662Z,6.43
2022-12-04T09:51:36.609Z,6.39
2022-12-04T09:52:36.564Z,6.46
2022-12-04T09:53:36.535Z,6.47
2022-12-04T09:54:36.472Z,6.47
2022-12-04T09:55:36.420Z,6.46
2022-12-04T09:56:36.374Z,6.36
2022-12-04T09:57:36.330Z,6.41
2022-12-04T09:58:36.276Z,6.35
2022-12-04T09:59:36.249Z,6.35
2022-12-04T10:00:36.181Z,6.34
2022-12-04T10:01:36.133Z,6.34
2022-12-04T10:02:36.188Z,6.29
2022-12-04T10:03:36.161Z,6.36
2022-12-04T10:04:35.993Z,6.36
2022-12-04T10:05:35.980Z,6.38
2022-12-04T10:06:35.895Z,6.29
2022-12-04T10:07:35.885Z,6.28
2022-12-04T10:08:35.801Z,6.25
2022-12-04T10:09:35.757Z,6.26
2022-12-04T10:10:35.709Z,6.25
2022-12-04T10:11:35.686Z,6.28
2022-12-04T10:12:35.638Z,6.26
2022-12-04T10:13:35.564Z,6.31
2022-12-04T10:14:35.521Z,6.28
2022-12-04T10:15:35.497Z,6.06
2022-12-04T10:16:35.474Z,6.05
2022-12-04T10:17:35.368Z,6.13
2022-12-04T10:18:35.351Z,6.13
2022-12-04T10:19:35.279Z,6.13
2022-12-04T10:20:35.225Z,6.10
2022-12-04T10:21:35.206Z,6.02
2022-12-04T10:22:35.171Z,6.06
2022-12-04T10:23:35.086Z,6.05
2022-12-04T10:24:35.041Z,6.07
2022-12-04T10:25:35.073Z,6.06
2022-12-04T10:26:35.131Z,5.99
2022-12-04T10:27:34.894Z,6.01
2022-12-04T10:28:34.846Z,5.99
2022-12-04T10:29:34.798Z,5.95
2022-12-04T10:30:34.750Z,6.02
2022-12-04T10:31:34.794Z,6.01
2022-12-04T10:32:34.680Z,6.01
2022-12-04T10:33:34.608Z,6.05
2022-12-04T10:34:34.563Z,6.07
2022-12-04T10:35:34.516Z,6.17
2022-12-04T10:36:34.467Z,6.13
2022-12-04T10:37:34.421Z,6.09
2022-12-04T10:38:34.394Z,6.22
2022-12-04T10:39:34.324Z,6.22
2022-12-04T10:40:34.274Z,6.10
2022-12-04T10:41:34.226Z,6.22
2022-12-04T10:42:34.200Z,6.17
2022-12-04T10:43:34.132Z,6.26
2022-12-04T10:44:34.085Z,6.29
2022-12-04T10:45:34.040Z,6.31
2022-12-04T10:46:34.039Z,6.32
2022-12-04T10:47:33.941Z,6.25
2022-12-04T10:48:33.919Z,6.34
2022-12-04T10:49:33.845Z,6.28
2022-12-04T10:50:33.798Z,6.28
2022-12-04T10:51:33.750Z,6.25
2022-12-04T10:52:33.708Z,6.25
2022-12-04T10:53:33.684Z,6.31
2022-12-04T10:54:33.612Z,6.35
2022-12-04T10:55:33.586Z,6.38
2022-12-04T10:56:33.627Z,6.35
2022-12-04T10:57:33.466Z,6.43
2022-12-04T10:58:33.421Z,6.43
2022-12-04T10:59:33.403Z,6.49
2022-12-04T11:00:33.324Z,6.49
2022-12-04T11:01:33.382Z,6.39
2022-12-04T11:02:33.338Z,6.39
2022-12-04T11:03:33.205Z,6.38
2022-12-04T11:04:33.146Z,6.43
2022-12-04T11:05:33.170Z,6.29
2022-12-04T11:06:33.043Z,6.38
2022-12-04T11:07:33.054Z,6.38
2022-12-04T11:08:32.998Z,6.43
2022-12-04T11:09:32.895Z,6.46
2022-12-04T11:10:32.852Z,6.46
2022-12-04T11:11:32.834Z,6.50
2022-12-04T11:12:32.787Z,6.47
2022-12-04T11:13:32.708Z,6.56
2022-12-04T11:14:32.661Z,6.52
2022-12-04T11:15:32.609Z,6.60
2022-12-04T11:16:32.646Z,6.56
2022-12-04T11:17:32.522Z,6.64
2022-12-04T11:18:32.475Z,6.70
2022-12-04T11:19:32.426Z,6.70
2022-12-04T11:20:32.377Z,6.72
2022-12-04T11:21:32.355Z,6.80
2022-12-04T11:22:32.287Z,6.78
2022-12-04T11:23:32.240Z,6.75
2022-12-04T11:24:32.187Z,6.72
2022-12-04T11:25:32.168Z,6.78
2022-12-04T11:26:32.099Z,6.75
2022-12-04T11:27:32.047Z,6.86
2022-12-04T11:28:47.105Z,6.95
2022-12-04T11:29:31.950Z,6.87
2022-12-04T11:30:31.907Z,6.87
2022-12-04T11:31:31.923Z,6.95
2022-12-04T11:32:31.815Z,6.95
2022-12-04T11:33:31.766Z,6.95
2022-12-04T11:34:31.721Z,7.00
2022-12-04T11:35:31.672Z,6.89
2022-12-04T11:36:31.650Z,6.95
2022-12-04T11:37:31.580Z,7.00
2022-12-04T11:38:31.555Z,6.93
2022-12-04T11:39:31.481Z,6.95
2022-12-04T11:40:31.438Z,7.01
2022-12-04T11:41:31.413Z,7.11
2022-12-04T11:42:31.340Z,7.01
2022-12-04T11:43:31.307Z,7.11
2022-12-04T11:44:31.246Z,6.96
2022-12-04T11:45:31.201Z,6.93
2022-12-04T11:46:31.282Z,6.93
2022-12-04T11:47:31.106Z,6.90
2022-12-04T11:48:31.056Z,6.83
2022-12-04T11:49:31.051Z,6.83
2022-12-04T11:50:30.962Z,6.80
2022-12-04T11:51:30.916Z,6.80
2022-12-04T11:52:30.876Z,6.80
2022-12-04T11:53:30.822Z,6.77
2022-12-04T11:54:30.797Z,6.75
2022-12-04T11:55:30.761Z,6.82
2022-12-04T11:56:30.684Z,6.78
2022-12-04T11:57:30.654Z,6.86
2022-12-04T11:58:30.589Z,6.90
2022-12-04T11:59:30.536Z,6.92
2022-12-04T12:00:30.504Z,6.97
2022-12-04T12:01:30.444Z,7.05
2022-12-04T12:02:30.476Z,7.08
2022-12-04T12:03:30.548Z,7.08
2022-12-04T12:04:30.302Z,7.15
2022-12-04T12:05:30.258Z,7.19
2022-12-04T12:06:30.215Z,7.19
2022-12-04T12:07:30.222Z,7.28
2022-12-04T12:08:30.112Z,7.25
2022-12-04T12:09:30.094Z,7.31
2022-12-04T12:10:30.050Z,7.31
2022-12-04T12:11:29.980Z,7.41
2022-12-04T12:12:29.932Z,7.31
2022-12-04T12:13:29.885Z,7.39
2022-12-04T12:14:29.833Z,7.41
2022-12-04T12:15:29.786Z,7.44
2022-12-04T12:16:29.810Z,7.33
2022-12-04T12:17:29.704Z,7.31
2022-12-04T12:18:29.639Z,7.22
2022-12-04T12:19:29.594Z,7.29
2022-12-04T12:20:29.545Z,7.26
2022-12-04T12:21:29.507Z,7.11
2022-12-04T12:22:29.476Z,7.10
2022-12-04T12:23:29.413Z,7.07
2022-12-04T12:24:29.358Z,7.13
2022-12-04T12:25:29.342Z,7.10
2022-12-04T12:26:29.269Z,7.04
2022-12-04T12:27:29.226Z,7.10
2022-12-04T12:28:29.167Z,7.10
2022-12-04T12:29:29.126Z,7.07
2022-12-04T12:30:29.083Z,7.14
2022-12-04T12:31:29.103Z,7.11
2022-12-04T12:32:29.003Z,7.14
2022-12-04T12:33:28.964Z,7.14
2022-12-04T12:34:28.888Z,6.97
2022-12-04T12:35:28.848Z,6.95
2022-12-04T12:36:28.797Z,6.93
2022-12-04T12:37:28.775Z,6.83
2022-12-04T12:38:28.699Z,6.89
2022-12-04T12:39:28.656Z,6.80
2022-12-04T12:40:28.611Z,6.72
2022-12-04T12:41:28.562Z,6.77
2022-12-04T12:42:28.513Z,6.85
2022-12-04T12:43:28.523Z,6.85
2022-12-04T12:44:28.489Z,6.86
2022-12-04T12:45:28.443Z,6.97
2022-12-04T12:46:28.341Z,7.03
2022-12-04T12:47:28.316Z,7.05
2022-12-04T12:48:28.232Z,7.14
2022-12-04T12:49:28.177Z,7.23
2022-12-04T12:50:28.132Z,7.39
2022-12-04T12:51:30.397Z,7.41
2022-12-04T12:52:28.041Z,7.40
2022-12-04T12:53:28.029Z,7.50
2022-12-04T12:54:27.945Z,7.51
2022-12-04T12:55:28.097Z,7.55
2022-12-04T12:56:27.894Z,7.67
2022-12-04T12:57:27.803Z,7.70
2022-12-04T12:58:27.758Z,7.78
2022-12-04T12:59:27.715Z,7.93
2022-12-04T13:00:27.673Z,7.95
2022-12-04T13:01:27.748Z,7.91
2022-12-04T13:02:27.601Z,8.02
2022-12-04T13:03:27.524Z,8.02
2022-12-04T13:04:27.484Z,8.17
2022-12-04T13:05:27.433Z,8.16
2022-12-04T13:06:27.386Z,8.28
2022-12-04T13:07:27.475Z,8.32
2022-12-04T13:08:27.292Z,8.35
2022-12-04T13:09:27.249Z,8.42
2022-12-04T13:10:27.198Z,8.42
2022-12-04T13:11:27.153Z,8.42
2022-12-04T13:12:27.107Z,8.38
2022-12-04T13:13:27.090Z,8.41
2022-12-04T13:14:27.015Z,8.28
2022-12-04T13:15:26.973Z,8.39
2022-12-04T13:16:27.099Z,8.32
2022-12-04T13:17:26.878Z,8.32
2022-12-04T13:18:26.864Z,8.21
2022-12-04T13:19:26.782Z,8.32
2022-12-04T13:20:26.736Z,8.28
2022-12-04T13:21:26.692Z,8.36
2022-12-04T13:22:26.668Z,8.41